Time;durP1;ratioP1;P1;durP2;ratioP2;P2;SDS_P1;SDS_P2;PMS_P1;PMS_P2;Temp;Humidity;BMP_temperature;BMP_pressure;BME280_temperature;BME280_humidity;BME280_pressure;Samples;Min_cycle;Max_cycle;Signal;HPM_P1;HPM_P2
2023/04/19 00:04:32;;;;;;;5.15;3.80;;;15.50;65.90;;;;;;10289541;28;20721;-56
2023/04/19 00:09:33;;;;;;;7.40;4.75;;;15.50;65.90;;;;;;10272365;28;20007;-56
2023/04/19 00:14:33;;;;;;;4.95;3.92;;;15.50;65.90;;;;;;10289281;28;20030;-56
2023/04/19 00:19:34;;;;;;;6.93;4.68;;;15.50;65.90;;;;;;10272068;28;20047;-55
2023/04/19 00:24:35;;;;;;;4.90;3.55;;;15.50;65.90;;;;;;10288981;28;20373;-56
2023/04/19 00:29:35;;;;;;;5.80;4.15;;;15.50;65.90;;;;;;10271102;28;20047;-56
2023/04/19 00:34:36;;;;;;;5.55;4.40;;;15.50;65.90;;;;;;10288803;28;20098;-55
2023/04/19 00:39:37;;;;;;;5.38;4.35;;;15.50;65.90;;;;;;10288145;28;20019;-55
2023/04/19 00:44:37;;;;;;;6.13;4.93;;;15.50;65.90;;;;;;10270574;28;20111;-56
2023/04/19 00:49:39;;;;;;;5.20;4.07;;;15.50;65.90;;;;;;10288043;28;20075;-55
2023/04/19 00:54:43;;;;;;;4.53;3.65;;;15.50;65.90;;;;;;10287852;28;20034;-55
2023/04/19 00:59:44;;;;;;;5.07;4.05;;;15.50;66.00;;;;;;10270944;28;20023;-55
2023/04/19 01:04:45;;;;;;;6.45;3.88;;;15.50;66.00;;;;;;10287561;28;20509;-56
2023/04/19 01:09:46;;;;;;;6.50;4.03;;;15.50;66.00;;;;;;10287487;28;20061;-55
2023/04/19 01:14:47;;;;;;;5.63;4.18;;;15.50;66.00;;;;;;10269853;28;20015;-55
2023/04/19 01:19:47;;;;;;;4.97;4.32;;;15.50;66.00;;;;;;10287196;28;20051;-56
2023/04/19 01:24:48;;;;;;;5.47;4.32;;;15.50;65.90;;;;;;10286683;28;20125;-56
2023/04/19 01:29:49;;;;;;;6.18;5.55;;;15.40;65.90;;;;;;10269209;28;20097;-55
2023/04/19 01:34:51;;;;;;;5.05;4.07;;;15.40;65.90;;;;;;10286484;28;20431;-55
2023/04/19 01:39:51;;;;;;;5.90;4.38;;;15.40;65.90;;;;;;10286343;28;20038;-56
2023/04/19 01:44:52;;;;;;;6.13;4.13;;;15.40;65.90;;;;;;10285916;28;20532;-54
2023/04/19 01:49:53;;;;;;;6.43;4.78;;;15.40;65.70;;;;;;10285289;28;20062;-55
2023/04/19 01:54:53;;;;;;;4.95;3.85;;;15.40;65.80;;;;;;10285259;28;20158;-56
2023/04/19 01:59:54;;;;;;;5.10;4.32;;;15.40;65.80;;;;;;10285645;28;20113;-56
2023/04/19 02:04:56;;;;;;;6.68;4.93;;;15.40;65.80;;;;;;10284952;28;20078;-56
2023/04/19 02:09:58;;;;;;;6.03;4.53;;;15.40;65.80;;;;;;10285297;28;20034;-55
2023/04/19 02:15:01;;;;;;;6.10;4.85;;;15.40;65.90;;;;;;10284904;28;20018;-55
2023/04/19 02:20:03;;;;;;;5.63;3.83;;;15.30;65.80;;;;;;10285064;28;20049;-56
2023/04/19 02:25:05;;;;;;;5.18;4.35;;;15.40;65.90;;;;;;10284788;28;20098;-54
2023/04/19 02:30:07;;;;;;;5.72;4.63;;;15.40;65.90;;;;;;10284191;28;20027;-56
2023/04/19 02:35:08;;;;;;;5.55;4.13;;;15.40;65.90;;;;;;10283078;28;20101;-53
2023/04/19 02:40:09;;;;;;;5.93;4.25;;;15.40;65.90;;;;;;10284038;28;20681;-56
2023/04/19 02:45:10;;;;;;;5.90;4.15;;;15.30;65.80;;;;;;10284421;28;20061;-55
2023/04/19 02:50:11;;;;;;;5.85;4.10;;;15.30;65.80;;;;;;10284003;28;20050;-55
2023/04/19 02:55:12;;;;;;;5.68;4.40;;;15.30;65.80;;;;;;10283695;28;20026;-56
2023/04/19 03:00:13;;;;;;;5.75;4.38;;;15.30;65.90;;;;;;10283654;28;20518;-53
2023/04/19 03:05:14;;;;;;;5.85;4.35;;;15.30;65.90;;;;;;10283301;28;20035;-55
2023/04/19 03:10:14;;;;;;;5.38;3.83;;;15.30;66.00;;;;;;10283483;28;20023;-56
2023/04/19 03:15:17;;;;;;;5.45;4.72;;;15.30;65.90;;;;;;10283375;28;20499;-54
2023/04/19 03:20:19;;;;;;;5.82;4.57;;;15.30;66.00;;;;;;10283478;28;20027;-56
2023/04/19 03:25:20;;;;;;;5.68;4.07;;;15.30;66.10;;;;;;10283016;28;20038;-53
2023/04/19 03:30:21;;;;;;;6.57;4.85;;;15.30;66.00;;;;;;10281125;28;20438;-56
2023/04/19 03:35:25;;;;;;;5.32;3.78;;;15.30;66.50;;;;;;10281916;28;20023;-56
2023/04/19 03:40:25;;;;;;;6.18;4.18;;;15.40;67.30;;;;;;10281961;28;20033;-57
2023/04/19 03:45:26;;;;;;;4.18;3.20;;;15.40;67.00;;;;;;10282086;28;20049;-56
2023/04/19 03:50:27;;;;;;;4.63;3.70;;;15.40;67.40;;;;;;10281840;28;20033;-57
2023/04/19 03:55:27;;;;;;;6.07;3.92;;;15.40;66.60;;;;;;10280051;28;20118;-56
2023/04/19 04:00:28;;;;;;;4.60;3.53;;;15.40;67.20;;;;;;10279812;28;20066;-54
2023/04/19 04:05:29;;;;;;;5.38;3.70;;;15.50;66.80;;;;;;10282008;28;20118;-56
2023/04/19 04:10:29;;;;;;;5.82;3.70;;;15.60;66.10;;;;;;10282315;28;20111;-56
2023/04/19 04:15:30;;;;;;;5.13;3.42;;;15.80;65.40;;;;;;10284898;28;20061;-56
2023/04/19 04:20:31;;;;;;;4.90;3.80;;;16.00;64.80;;;;;;10269878;28;20901;-56
2023/04/19 04:25:31;;;;;;;4.00;3.30;;;16.10;64.40;;;;;;10284071;28;20106;-57
2023/04/19 04:30:35;;;;;;;5.15;3.38;;;16.20;64.10;;;;;;10270901;28;20149;-57
2023/04/19 04:35:35;;;;;;;4.10;3.20;;;16.30;64.10;;;;;;10287147;28;20015;-57
2023/04/19 04:40:36;;;;;;;6.05;3.33;;;16.30;64.00;;;;;;10288473;28;20122;-56
2023/04/19 04:45:37;;;;;;;7.80;4.15;;;16.30;64.10;;;;;;10288212;28;20126;-56
2023/04/19 04:50:38;;;;;;;5.38;3.50;;;16.30;64.70;;;;;;10287834;28;20142;-57
2023/04/19 04:55:38;;;;;;;7.00;3.50;;;16.50;64.60;;;;;;10287956;28;20027;-57
2023/04/19 05:00:39;;;;;;;14.45;5.07;;;16.50;65.80;;;;;;10287717;28;20520;-56
2023/04/19 05:05:40;;;;;;;13.43;4.50;;;16.60;66.30;;;;;;10287691;28;20031;-55
2023/04/19 05:10:40;;;;;;;10.77;4.40;;;16.60;66.50;;;;;;10286668;28;20110;-56
2023/04/19 05:15:41;;;;;;;12.25;4.13;;;16.50;66.30;;;;;;10287753;28;20019;-56
2023/04/19 05:20:42;;;;;;;10.93;5.30;;;16.40;66.50;;;;;;10287225;28;20101;-56
2023/04/19 05:25:43;;;;;;;14.88;5.35;;;16.30;66.70;;;;;;10286731;28;20541;-57
2023/04/19 05:30:44;;;;;;;14.18;4.45;;;16.20;67.40;;;;;;10269154;28;20072;-54
2023/04/19 05:35:44;;;;;;;12.27;4.63;;;16.20;67.40;;;;;;10286460;28;20045;-56
2023/04/19 05:40:45;;;;;;;10.38;4.90;;;16.20;67.20;;;;;;10264773;28;20035;-54
2023/04/19 05:45:46;;;;;;;10.98;4.43;;;16.10;67.40;;;;;;10284549;28;20047;-57
2023/04/19 05:50:46;;;;;;;8.35;3.78;;;16.10;67.30;;;;;;10285990;28;20089;-57
2023/04/19 05:55:49;;;;;;;13.05;4.72;;;16.10;67.30;;;;;;10285673;28;20118;-57
2023/04/19 06:00:51;;;;;;;19.75;5.15;;;16.00;67.50;;;;;;10283994;28;20168;-54
2023/04/19 06:05:51;;;;;;;59.47;11.35;;;16.00;67.70;;;;;;10284471;28;20137;-57
2023/04/19 06:10:53;;;;;;;31.52;8.38;;;16.10;67.40;;;;;;10285498;28;20158;-55
2023/04/19 06:15:54;;;;;;;22.33;6.55;;;16.00;67.30;;;;;;10268002;28;20019;-56
2023/04/19 06:20:54;;;;;;;28.63;6.43;;;15.90;67.30;;;;;;10285246;28;20474;-56
2023/04/19 06:25:55;;;;;;;23.55;6.28;;;15.80;67.50;;;;;;10284793;28;20031;-57
2023/04/19 06:30:56;;;;;;;22.10;5.45;;;15.80;67.40;;;;;;10267232;28;20019;-57
2023/04/19 06:35:56;;;;;;;12.90;5.97;;;15.80;67.40;;;;;;10284227;28;20422;-56
2023/04/19 06:40:57;;;;;;;13.18;4.43;;;15.70;67.30;;;;;;10266381;28;20058;-57
2023/04/19 06:46:03;;;;;;;13.43;5.63;;;15.70;67.30;;;;;;10283722;28;20118;-57
2023/04/19 06:51:04;;;;;;;13.40;5.07;;;15.70;67.10;;;;;;10283884;28;20028;-55
2023/04/19 06:56:05;;;;;;;16.50;5.72;;;15.70;67.70;;;;;;10282526;28;20078;-57
2023/04/19 07:01:06;;;;;;;10.55;4.55;;;15.70;67.00;;;;;;10281674;28;20106;-56
2023/04/19 07:06:07;;;;;;;10.40;5.00;;;15.70;66.90;;;;;;10282850;28;20059;-56
2023/04/19 07:11:07;;;;;;;17.50;5.43;;;15.70;66.40;;;;;;10283665;28;20090;-56
2023/04/19 07:16:08;;;;;;;12.23;5.03;;;15.70;65.60;;;;;;10283322;28;20065;-56
2023/04/19 07:21:09;;;;;;;10.15;3.95;;;15.80;65.40;;;;;;10280387;28;20026;-54
2023/04/19 07:26:10;;;;;;;10.02;4.63;;;15.80;65.00;;;;;;10278144;28;20106;-55
2023/04/19 07:31:18;;;;;;;11.23;5.10;;;15.80;64.90;;;;;;10276960;28;20023;-54
2023/04/19 07:36:20;;;;;;;11.02;5.50;;;15.80;64.80;;;;;;10279399;28;20090;-55
2023/04/19 07:41:21;;;;;;;9.27;3.58;;;15.80;64.70;;;;;;10280817;28;20050;-54
2023/04/19 07:46:22;;;;;;;10.27;4.72;;;15.80;64.70;;;;;;10280569;28;20066;-55
2023/04/19 07:51:23;;;;;;;10.23;5.13;;;15.70;64.50;;;;;;10284915;28;20033;-55
2023/04/19 07:56:25;;;;;;;11.68;4.38;;;15.70;64.10;;;;;;10288193;28;20023;-55
2023/04/19 08:01:28;;;;;;;8.95;3.47;;;15.70;64.80;;;;;;10287572;28;20019;-55
2023/04/19 08:06:29;;;;;;;10.40;3.78;;;15.70;64.20;;;;;;10288001;28;20023;-55
2023/04/19 08:11:30;;;;;;;4.97;3.65;;;15.70;64.20;;;;;;10287543;28;20018;-56
2023/04/19 08:16:31;;;;;;;9.95;5.00;;;15.80;64.10;;;;;;10270864;28;20053;-55
2023/04/19 08:21:31;;;;;;;6.22;3.20;;;15.80;63.90;;;;;;10287106;28;20023;-55
2023/04/19 08:26:32;;;;;;;9.05;4.30;;;15.80;63.90;;;;;;10287023;28;20113;-55
2023/04/19 08:31:33;;;;;;;7.15;3.13;;;15.80;63.80;;;;;;10286756;28;20046;-55
2023/04/19 08:36:33;;;;;;;7.88;3.47;;;15.80;63.60;;;;;;10285977;28;20182;-56
2023/04/19 08:41:35;;;;;;;5.85;2.80;;;15.80;63.60;;;;;;10285593;28;20050;-55
2023/04/19 08:46:36;;;;;;;5.43;3.47;;;15.80;63.60;;;;;;10285363;28;20050;-54
2023/04/19 08:51:38;;;;;;;4.60;2.72;;;15.80;63.40;;;;;;10286189;28;20023;-54
2023/04/19 08:56:39;;;;;;;8.50;4.13;;;15.80;63.30;;;;;;10268008;28;20027;-57
2023/04/19 09:01:40;;;;;;;6.43;2.90;;;15.90;63.30;;;;;;10285270;28;20404;-54
2023/04/19 09:06:41;;;;;;;4.15;3.03;;;15.90;63.10;;;;;;10285984;28;20401;-55
2023/04/19 09:11:42;;;;;;;5.95;2.60;;;15.90;63.10;;;;;;10284383;28;20554;-56
2023/04/19 09:16:44;;;;;;;6.10;3.63;;;15.90;62.80;;;;;;10267825;28;20039;-56
2023/04/19 09:21:45;;;;;;;6.18;2.13;;;15.90;62.30;;;;;;10284642;28;20074;-56
2023/04/19 09:26:56;;;;;;;4.70;2.78;;;15.90;61.30;;;;;;10266881;28;20129;-56
2023/04/19 09:31:58;;;;;;;5.43;2.97;;;15.90;61.30;;;;;;10284352;28;20058;-56
2023/04/19 09:37:12;;;;;;;6.82;2.25;;;15.90;61.10;;;;;;10283873;28;20023;-57
2023/04/19 09:42:13;;;;;;;4.35;2.22;;;15.90;61.00;;;;;;10263722;28;20438;-57
2023/04/19 09:47:40;;;;;;;4.57;2.22;;;16.00;60.90;;;;;;10285020;28;20125;-57
2023/04/19 09:52:41;;;;;;;4.82;1.45;;;16.00;60.60;;;;;;10266009;28;20035;-56
2023/04/19 09:57:41;;;;;;;5.68;1.98;;;15.90;60.30;;;;;;10285722;28;20407;-57
2023/04/19 10:02:46;;;;;;;3.83;2.28;;;16.00;60.20;;;;;;10285261;28;20118;-56
2023/04/19 10:07:48;;;;;;;3.70;1.50;;;15.90;60.20;;;;;;10268291;28;20466;-55
2023/04/19 10:12:53;;;;;;;2.88;2.03;;;16.00;60.40;;;;;;10267169;28;20447;-56
2023/04/19 10:17:54;;;;;;;3.92;1.40;;;16.00;60.30;;;;;;10267859;28;20018;-57
2023/04/19 10:22:55;;;;;;;3.90;1.95;;;16.00;60.30;;;;;;10267390;28;20030;-55
2023/04/19 10:27:57;;;;;;;5.35;1.98;;;16.00;60.50;;;;;;10284383;28;20035;-56
2023/04/19 10:33:01;;;;;;;2.97;1.50;;;16.10;60.50;;;;;;10284498;28;20031;-57
2023/04/19 10:38:15;;;;;;;2.33;1.45;;;16.10;60.20;;;;;;10267356;28;20085;-57
2023/04/19 10:43:21;;;;;;;2.80;1.38;;;16.10;60.20;;;;;;10282723;28;20029;-56
2023/04/19 10:48:34;;;;;;;3.22;1.70;;;16.10;59.40;;;;;;10265389;28;20035;-57
2023/04/19 10:53:48;;;;;;;3.80;1.70;;;16.10;59.20;;;;;;10284217;28;20426;-57
2023/04/19 10:59:01;;;;;;;4.05;1.38;;;16.20;59.20;;;;;;10283687;28;20042;-57
2023/04/19 11:04:02;;;;;;;3.13;1.40;;;16.20;59.20;;;;;;10282152;28;20154;-56
2023/04/19 11:09:05;;;;;;;5.10;2.05;;;16.20;59.00;;;;;;10283375;28;20023;-57
2023/04/19 11:14:08;;;;;;;7.05;1.83;;;16.30;58.60;;;;;;10266364;28;20087;-54
2023/04/19 11:19:09;;;;;;;17.85;2.83;;;16.40;58.80;;;;;;10283503;28;20061;-57
2023/04/19 11:24:10;;;;;;;9.52;2.35;;;16.40;58.70;;;;;;10286397;28;20091;-56
2023/04/19 11:29:11;;;;;;;9.25;1.88;;;16.40;58.90;;;;;;10291050;28;20027;-57
2023/04/19 11:34:12;;;;;;;13.85;3.05;;;16.50;59.10;;;;;;10291371;28;20015;-58
2023/04/19 11:39:13;;;;;;;9.57;1.85;;;16.40;59.00;;;;;;10273602;28;20018;-57
2023/04/19 11:44:21;;;;;;;3.90;1.77;;;16.50;58.90;;;;;;10290980;28;20107;-51
2023/04/19 11:49:32;;;;;;;6.15;1.58;;;16.50;58.30;;;;;;10257229;28;20051;-56
2023/04/19 11:54:33;;;;;;;4.18;2.08;;;16.50;58.20;;;;;;10279728;28;20030;-56
2023/04/19 11:59:35;;;;;;;6.63;1.73;;;16.50;58.30;;;;;;10273023;28;20023;-57
2023/04/19 12:04:37;;;;;;;8.63;1.77;;;16.50;58.20;;;;;;10288693;28;20054;-57
2023/04/19 12:09:38;;;;;;;3.53;1.67;;;16.50;58.20;;;;;;10272892;28;20026;-57
2023/04/19 12:14:50;;;;;;;4.93;1.80;;;16.60;58.00;;;;;;10272237;28;20035;-57
2023/04/19 12:19:51;;;;;;;11.25;2.50;;;16.60;58.10;;;;;;10287712;28;20478;-56
2023/04/19 12:24:54;;;;;;;4.38;1.83;;;16.60;58.00;;;;;;10288512;28;20034;-56
2023/04/19 12:29:54;;;;;;;5.20;1.80;;;16.60;57.80;;;;;;10268295;28;20047;-55
2023/04/19 12:34:55;;;;;;;4.07;1.85;;;16.70;57.90;;;;;;10283014;28;20123;-56
2023/04/19 12:39:56;;;;;;;10.45;2.75;;;16.70;58.00;;;;;;10267019;28;20053;-57
2023/04/19 12:44:56;;;;;;;3.45;1.50;;;16.70;57.70;;;;;;10283668;28;20122;-57
2023/04/19 12:49:57;;;;;;;4.85;1.67;;;16.70;57.90;;;;;;10286195;28;20081;-56
2023/04/19 12:54:58;;;;;;;7.40;1.67;;;16.70;57.90;;;;;;10268702;28;20102;-56
2023/04/19 12:59:58;;;;;;;5.97;1.52;;;16.80;57.60;;;;;;10286186;28;20081;-56
2023/04/19 13:04:59;;;;;;;4.40;1.65;;;16.80;57.70;;;;;;10285059;28;20117;-57
2023/04/19 13:10:00;;;;;;;3.40;1.45;;;16.80;57.70;;;;;;10285403;28;20091;-57
2023/04/19 13:15:00;;;;;;;3.10;1.40;;;16.80;57.60;;;;;;10284999;28;20019;-57
2023/04/19 13:20:02;;;;;;;5.05;1.70;;;16.80;57.80;;;;;;10284940;28;20027;-56
2023/04/19 13:25:03;;;;;;;4.88;1.92;;;16.80;57.90;;;;;;10284575;28;20110;-56
2023/04/19 13:30:04;;;;;;;3.15;1.38;;;16.90;57.80;;;;;;10285029;28;20530;-57
2023/04/19 13:35:05;;;;;;;1.70;1.02;;;16.90;57.90;;;;;;10267196;28;20046;-55
2023/04/19 13:40:07;;;;;;;2.70;1.42;;;16.90;57.70;;;;;;10284590;28;20264;-57
2023/04/19 13:45:08;;;;;;;3.92;1.92;;;16.90;57.90;;;;;;10283712;28;20478;-56
2023/04/19 13:50:09;;;;;;;3.58;1.60;;;16.90;57.60;;;;;;10284035;28;20023;-56
2023/04/19 13:55:10;;;;;;;1.55;1.25;;;16.90;57.60;;;;;;10284188;28;20608;-57
2023/04/19 14:00:11;;;;;;;1.88;0.80;;;16.90;57.20;;;;;;10283288;28;20038;-55
2023/04/19 14:05:12;;;;;;;2.35;1.35;;;16.90;57.30;;;;;;10283542;28;20490;-56
2023/04/19 14:10:13;;;;;;;3.28;1.27;;;16.90;57.40;;;;;;10265570;28;20077;-54
2023/04/19 14:15:14;;;;;;;1.98;1.25;;;16.90;57.60;;;;;;10281836;28;20462;-54
2023/04/19 14:20:16;;;;;;;2.15;1.10;;;16.90;57.20;;;;;;10265245;28;20422;-57
2023/04/19 14:25:19;;;;;;;2.63;1.25;;;16.90;57.40;;;;;;10282612;28;20046;-57
2023/04/19 14:30:20;;;;;;;2.35;2.08;;;17.00;57.90;;;;;;10282195;28;20011;-56
2023/04/19 14:35:21;;;;;;;2.13;1.20;;;17.00;57.60;;;;;;10281975;28;20026;-56
2023/04/19 14:40:22;;;;;;;2.28;1.13;;;17.00;58.00;;;;;;10282261;28;20026;-56
2023/04/19 14:45:23;;;;;;;3.25;1.50;;;17.00;57.90;;;;;;10282124;28;20117;-56
2023/04/19 14:50:23;;;;;;;2.70;1.20;;;17.00;57.90;;;;;;10281825;28;20745;-56
2023/04/19 14:55:25;;;;;;;2.50;1.42;;;17.00;58.00;;;;;;10248363;28;20581;-55
2023/04/19 15:00:26;;;;;;;2.25;1.50;;;17.00;58.10;;;;;;10281327;28;20107;-55
2023/04/19 15:05:27;;;;;;;2.13;0.98;;;17.00;57.90;;;;;;10281120;28;20158;-54
2023/04/19 15:10:28;;;;;;;1.40;0.90;;;17.00;57.70;;;;;;10281444;28;20020;-55
2023/04/19 15:15:28;;;;;;;2.35;1.23;;;17.00;57.90;;;;;;10281234;28;20023;-56
2023/04/19 15:20:29;;;;;;;2.38;1.27;;;17.00;57.60;;;;;;10281627;28;20470;-56
2023/04/19 15:25:30;;;;;;;2.83;1.30;;;17.00;57.60;;;;;;10263681;28;20118;-57
2023/04/19 15:30:30;;;;;;;2.65;1.02;;;17.00;57.60;;;;;;10281065;28;20093;-57
2023/04/19 15:35:31;;;;;;;1.95;1.20;;;17.00;57.60;;;;;;10263570;28;20058;-56
2023/04/19 15:40:32;;;;;;;2.15;0.90;;;17.00;57.80;;;;;;10280717;28;20067;-55
2023/04/19 15:45:32;;;;;;;1.67;0.90;;;16.90;57.70;;;;;;10280473;28;20454;-55
2023/04/19 15:50:36;;;;;;;2.15;1.10;;;17.00;57.40;;;;;;10280618;28;20109;-56
2023/04/19 15:55:37;;;;;;;3.05;1.75;;;16.90;57.40;;;;;;10280488;28;20082;-56
2023/04/19 16:00:38;;;;;;;1.65;1.00;;;16.90;57.20;;;;;;10247371;28;20549;-56
2023/04/19 16:05:39;;;;;;;1.85;0.90;;;16.90;57.40;;;;;;10279972;28;20031;-56
2023/04/19 16:10:39;;;;;;;1.42;1.00;;;16.90;57.40;;;;;;10282174;28;20524;-56
2023/04/19 16:15:41;;;;;;;3.88;1.35;;;16.90;57.50;;;;;;10270586;28;20147;-56
2023/04/19 16:20:42;;;;;;;2.58;1.40;;;16.90;57.50;;;;;;10287716;28;20044;-55
2023/04/19 16:25:43;;;;;;;2.38;1.17;;;16.90;57.60;;;;;;10286835;28;20027;-55
2023/04/19 16:30:46;;;;;;;2.08;1.00;;;16.90;57.60;;;;;;10286641;28;20015;-55
2023/04/19 16:35:46;;;;;;;2.22;1.17;;;16.80;57.60;;;;;;10287121;28;20386;-56
2023/04/19 16:40:48;;;;;;;3.28;1.58;;;16.80;57.90;;;;;;10286655;28;20254;-55
2023/04/19 16:45:48;;;;;;;1.88;1.17;;;16.80;57.90;;;;;;10285125;28;20537;-55
2023/04/19 16:50:50;;;;;;;1.83;1.13;;;16.80;57.80;;;;;;10269369;28;20114;-55
2023/04/19 16:55:50;;;;;;;1.88;1.23;;;16.80;57.90;;;;;;10284870;28;20438;-57
2023/04/19 17:00:51;;;;;;;3.58;1.25;;;16.80;58.00;;;;;;10260406;28;20054;-57
2023/04/19 17:05:52;;;;;;;3.72;1.33;;;16.80;58.20;;;;;;10287054;28;20093;-56
2023/04/19 17:10:52;;;;;;;4.13;1.58;;;16.80;58.50;;;;;;10270210;28;20039;-56
2023/04/19 17:15:53;;;;;;;5.13;1.33;;;16.80;58.50;;;;;;10287344;28;20059;-56
2023/04/19 17:20:53;;;;;;;5.20;1.35;;;16.80;58.30;;;;;;10287029;28;20042;-57
2023/04/19 17:25:54;;;;;;;3.08;0.98;;;16.80;58.10;;;;;;10286695;28;20106;-56
2023/04/19 17:30:55;;;;;;;3.72;1.77;;;16.70;58.10;;;;;;10286516;28;20049;-56
2023/04/19 17:35:55;;;;;;;7.00;1.60;;;16.70;58.10;;;;;;10284870;28;20069;-56
2023/04/19 17:40:57;;;;;;;6.90;1.67;;;16.70;58.10;;;;;;10286314;28;20027;-56
2023/04/19 17:45:58;;;;;;;6.22;1.60;;;16.70;58.40;;;;;;10269006;28;20074;-56
2023/04/19 17:50:59;;;;;;;4.50;1.65;;;16.60;58.60;;;;;;10268934;28;20042;-56
2023/04/19 17:55:59;;;;;;;3.70;1.83;;;16.60;58.60;;;;;;10286134;28;20111;-58
2023/04/19 18:01:02;;;;;;;5.45;1.35;;;16.60;58.60;;;;;;10284110;28;20387;-56
2023/04/19 18:06:02;;;;;;;3.53;1.38;;;16.60;58.40;;;;;;10284418;28;20019;-56
2023/04/19 18:11:03;;;;;;;3.30;1.58;;;16.50;58.30;;;;;;10283155;28;20031;-57
2023/04/19 18:16:04;;;;;;;6.32;1.48;;;16.50;58.20;;;;;;10266919;28;20094;-56
2023/04/19 18:21:05;;;;;;;7.35;1.38;;;16.50;58.40;;;;;;10265070;28;20071;-57
2023/04/19 18:26:06;;;;;;;3.25;1.52;;;16.50;58.20;;;;;;10282212;28;20027;-57
2023/04/19 18:31:08;;;;;;;4.55;1.20;;;16.50;58.20;;;;;;10283043;28;20800;-56
2023/04/19 18:36:08;;;;;;;5.93;1.42;;;16.50;58.30;;;;;;10264765;28;20669;-57
2023/04/19 18:41:09;;;;;;;3.90;1.15;;;16.60;58.40;;;;;;10284452;28;20121;-57
2023/04/19 18:46:10;;;;;;;2.83;1.20;;;16.70;58.20;;;;;;10283742;28;20047;-58
2023/04/19 18:51:11;;;;;;;5.93;1.70;;;16.50;58.40;;;;;;10284094;28;20494;-58
2023/04/19 18:56:12;;;;;;;2.63;0.88;;;16.40;58.40;;;;;;10283692;28;20054;-58
2023/04/19 19:01:13;;;;;;;4.90;1.05;;;16.40;59.00;;;;;;10281310;28;20094;-60
2023/04/19 19:06:15;;;;;;;4.65;1.42;;;16.40;58.50;;;;;;10283462;28;20031;-57
2023/04/19 19:11:15;;;;;;;2.13;1.02;;;16.60;58.60;;;;;;10259445;28;20067;-59
2023/04/19 19:16:16;;;;;;;4.30;1.13;;;16.60;58.40;;;;;;10279135;28;20110;-58
2023/04/19 19:21:17;;;;;;;3.90;1.27;;;16.70;58.20;;;;;;10264826;28;20054;-57
2023/04/19 19:26:18;;;;;;;4.32;1.40;;;16.50;58.40;;;;;;10263772;28;20462;-56
2023/04/19 19:31:18;;;;;;;3.03;1.30;;;16.40;58.70;;;;;;10279350;28;20027;-57
2023/04/19 19:36:19;;;;;;;4.82;1.33;;;16.40;59.00;;;;;;10280034;28;20038;-57
2023/04/19 19:41:20;;;;;;;4.50;1.30;;;16.40;59.30;;;;;;10279712;28;20113;-56
2023/04/19 19:46:20;;;;;;;4.53;1.25;;;16.30;59.40;;;;;;10267641;28;20133;-58
2023/04/19 19:51:22;;;;;;;3.40;1.45;;;16.30;58.80;;;;;;10287390;28;20106;-58
2023/04/19 19:56:23;;;;;;;5.43;1.55;;;16.30;58.60;;;;;;10289992;28;20471;-58
2023/04/19 20:01:23;;;;;;;2.95;1.20;;;16.30;58.70;;;;;;10272318;28;20025;-57
2023/04/19 20:06:24;;;;;;;2.10;1.23;;;16.30;59.00;;;;;;10289572;28;20039;-57
2023/04/19 20:11:25;;;;;;;2.88;1.27;;;16.30;59.20;;;;;;10289350;28;20053;-57
2023/04/19 20:16:27;;;;;;;2.63;1.42;;;16.20;58.90;;;;;;10289032;28;20479;-58
2023/04/19 20:21:28;;;;;;;3.25;1.13;;;16.20;58.70;;;;;;10288865;28;20034;-58
2023/04/19 20:26:29;;;;;;;4.10;1.25;;;16.20;59.50;;;;;;10288813;28;20033;-58
2023/04/19 20:31:29;;;;;;;2.20;1.45;;;16.20;58.70;;;;;;10288546;28;20054;-55
2023/04/19 20:36:30;;;;;;;4.40;1.48;;;16.20;58.90;;;;;;10271255;28;20031;-57
2023/04/19 20:41:31;;;;;;;3.05;1.50;;;16.20;58.70;;;;;;10255076;28;20130;-57
2023/04/19 20:46:34;;;;;;;3.72;1.55;;;16.10;58.60;;;;;;10287670;28;20042;-57
2023/04/19 20:51:35;;;;;;;2.67;1.58;;;16.10;58.40;;;;;;10288009;28;20014;-57
2023/04/19 20:56:35;;;;;;;2.88;1.33;;;16.10;58.20;;;;;;10287035;28;20058;-58
2023/04/19 21:01:36;;;;;;;2.83;1.30;;;16.10;58.00;;;;;;10285379;28;20241;-58
2023/04/19 21:06:37;;;;;;;3.08;1.30;;;16.10;58.20;;;;;;10268704;28;20532;-57
2023/04/19 21:11:38;;;;;;;2.42;1.13;;;16.10;58.10;;;;;;10287081;28;20019;-56
2023/04/19 21:16:38;;;;;;;3.25;2.00;;;16.10;57.90;;;;;;10286967;28;20085;-58
2023/04/19 21:21:40;;;;;;;1.90;1.50;;;16.10;58.00;;;;;;10269774;28;20058;-57
2023/04/19 21:26:40;;;;;;;2.92;1.58;;;16.10;58.00;;;;;;10286305;28;20027;-57
2023/04/19 21:31:41;;;;;;;3.78;2.15;;;16.10;58.20;;;;;;10286637;28;20050;-56
2023/04/19 21:36:41;;;;;;;2.35;1.27;;;16.10;58.30;;;;;;10285986;28;20058;-58
2023/04/19 21:41:42;;;;;;;2.08;1.55;;;16.00;58.20;;;;;;10286087;28;20018;-57
2023/04/19 21:46:43;;;;;;;3.28;1.50;;;16.00;58.20;;;;;;10284262;28;20050;-58
2023/04/19 21:51:44;;;;;;;2.08;1.60;;;16.00;58.00;;;;;;10285750;28;20057;-58
2023/04/19 21:56:44;;;;;;;2.30;1.48;;;16.00;58.10;;;;;;10285352;28;20050;-58
2023/04/19 22:01:45;;;;;;;2.45;1.67;;;16.00;58.10;;;;;;10285252;28;20134;-58
2023/04/19 22:06:45;;;;;;;2.60;1.60;;;16.00;58.10;;;;;;10284560;28;20643;-58
2023/04/19 22:11:49;;;;;;;3.13;1.73;;;16.00;58.20;;;;;;10267423;28;20125;-58
2023/04/19 22:16:49;;;;;;;2.63;1.48;;;15.90;58.10;;;;;;10285014;28;20042;-58
2023/04/19 22:21:52;;;;;;;2.72;1.20;;;16.00;58.10;;;;;;10285229;28;20023;-57
2023/04/19 22:26:52;;;;;;;2.55;1.40;;;16.00;58.30;;;;;;10284528;28;20031;-57
2023/04/19 22:31:53;;;;;;;2.60;1.38;;;16.00;58.30;;;;;;10284643;28;20101;-57
2023/04/19 22:36:53;;;;;;;2.78;1.50;;;16.00;58.20;;;;;;10267062;28;20023;-58
2023/04/19 22:41:54;;;;;;;2.60;1.20;;;16.00;58.30;;;;;;10266905;28;20533;-58
2023/04/19 22:46:57;;;;;;;2.92;1.40;;;15.90;58.20;;;;;;10283982;28;20122;-56
2023/04/19 22:51:59;;;;;;;2.08;1.27;;;15.90;58.30;;;;;;10284155;28;20026;-58
2023/04/19 22:56:59;;;;;;;4.22;1.60;;;15.90;58.20;;;;;;10283724;28;20019;-58
2023/04/19 23:02:00;;;;;;;2.80;1.73;;;15.90;58.10;;;;;;10283498;28;20446;-58
2023/04/19 23:07:02;;;;;;;2.72;1.50;;;15.90;58.20;;;;;;10283498;28;20418;-57
2023/04/19 23:12:05;;;;;;;2.95;1.60;;;15.90;58.20;;;;;;10266195;28;20522;-57
2023/04/19 23:17:06;;;;;;;3.10;1.50;;;15.90;58.10;;;;;;10283404;28;20113;-57
2023/04/19 23:22:06;;;;;;;2.22;1.20;;;15.90;58.10;;;;;;10289901;28;20058;-58
2023/04/19 23:27:07;;;;;;;2.35;1.45;;;15.80;58.10;;;;;;10291406;28;20145;-58
2023/04/19 23:32:08;;;;;;;2.55;1.40;;;15.80;58.10;;;;;;10291278;28;20072;-57
2023/04/19 23:37:09;;;;;;;3.55;1.52;;;15.80;58.10;;;;;;10291481;28;20124;-58
2023/04/19 23:42:10;;;;;;;3.95;1.75;;;15.80;58.10;;;;;;10290902;28;20591;-58
2023/04/19 23:47:10;;;;;;;1.60;1.20;;;15.80;58.20;;;;;;10290333;28;20129;-58
2023/04/19 23:52:11;;;;;;;2.17;1.30;;;15.80;58.10;;;;;;10290490;28;20431;-57
2023/04/19 23:57:12;;;;;;;2.83;1.30;;;15.80;58.10;;;;;;10290335;28;20102;-58
